GWI56R EDDH-EDDS
Flight info
| Callsign | GWI56R |
|---|---|
| Flight time | 0h 57m |
| Altitude | 35000 |
| Route | IDEKO7G/33 IDEKO N850 NIE DCT BERXO DCT SILWE DCT OSBIT P605 TOSTU T726 LBU |
| Aircraft | A319/M-SDE3FGHIRWY/LB1 |
Departure
| Time | 2026-05-06 19:38 |
|---|---|
| Airport | Hamburg Helmut Schmidt Airport (EDDH) |
Arrival
| Time | 2026-05-06 20:36 |
|---|---|
| Airport | Stuttgart Airport (EDDS) |
| Time | Latitude | Longitude | Altitude | Speed | Heading |
|---|---|---|---|---|---|
| 2026-05-06 18:58 | 53.63293 | 10.00357 | 62 ft | 0 kts | 87° |
| 2026-05-06 19:27 | 53.63293 | 10.00356 | 62 ft | 1 kts | 87° |
| 2026-05-06 19:27 | 53.63292 | 10.00332 | 62 ft | 2 kts | 87° |
| 2026-05-06 19:27 | 53.63291 | 10.00306 | 62 ft | 2 kts | 87° |
| 2026-05-06 19:27 | 53.63294 | 10.00281 | 62 ft | 2 kts | 111° |
| 2026-05-06 19:28 | 53.63300 | 10.00259 | 62 ft | 2 kts | 130° |
| 2026-05-06 19:28 | 53.63311 | 10.00243 | 62 ft | 2 kts | 150° |
| 2026-05-06 19:28 | 53.63325 | 10.00233 | 62 ft | 2 kts | 169° |
| 2026-05-06 19:28 | 53.63332 | 10.00232 | 62 ft | 1 kts | 179° |
| 2026-05-06 19:29 | 53.63335 | 10.00232 | 62 ft | 0 kts | 176° |
| 2026-05-06 19:31 | 53.63334 | 10.00232 | 62 ft | 1 kts | 176° |
| 2026-05-06 19:31 | 53.63265 | 10.00240 | 62 ft | 7 kts | 176° |
| 2026-05-06 19:32 | 53.63206 | 10.00247 | 62 ft | 9 kts | 176° |
| 2026-05-06 19:32 | 53.63135 | 10.00255 | 62 ft | 10 kts | 176° |
| 2026-05-06 19:32 | 53.63057 | 10.00247 | 62 ft | 12 kts | 202° |
| 2026-05-06 19:32 | 53.62983 | 10.00169 | 62 ft | 13 kts | 211° |
| 2026-05-06 19:33 | 53.62903 | 10.00086 | 62 ft | 12 kts | 214° |
| 2026-05-06 19:33 | 53.62850 | 9.99979 | 62 ft | 8 kts | 243° |
| 2026-05-06 19:33 | 53.62842 | 9.99954 | 62 ft | 0 kts | 243° |
| 2026-05-06 19:35 | 53.62832 | 9.99921 | 62 ft | 7 kts | 243° |
| 2026-05-06 19:36 | 53.62810 | 9.99820 | 62 ft | 10 kts | 279° |
| 2026-05-06 19:36 | 53.62848 | 9.99761 | 62 ft | 0 kts | 333° |
| 2026-05-06 19:36 | 53.62849 | 9.99760 | 62 ft | 0 kts | 333° |
| 2026-05-06 19:38 | 53.62885 | 9.99729 | 62 ft | 28 kts | 333° |
| 2026-05-06 19:38 | 53.63299 | 9.99373 | 62 ft | 103 kts | 333° |
| 2026-05-06 19:38 | 53.64466 | 9.98374 | 196 ft | 167 kts | 336° |
| 2026-05-06 19:38 | 53.65502 | 9.97491 | 890 ft | 168 kts | 338° |
| 2026-05-06 19:39 | 53.66527 | 9.96595 | 1695 ft | 167 kts | 339° |
| 2026-05-06 19:39 | 53.67580 | 9.95684 | 2291 ft | 179 kts | 339° |
| 2026-05-06 19:39 | 53.68343 | 9.95036 | 2648 ft | 190 kts | 339° |
| 2026-05-06 19:39 | 53.70018 | 9.93599 | 3368 ft | 216 kts | 334° |
| 2026-05-06 19:40 | 53.70809 | 9.92575 | 3914 ft | 225 kts | 313° |
| 2026-05-06 19:40 | 53.71475 | 9.89255 | 5011 ft | 242 kts | 268° |
| 2026-05-06 19:40 | 53.71030 | 9.86419 | 5614 ft | 261 kts | 251° |
| 2026-05-06 19:40 | 53.70387 | 9.83469 | 6192 ft | 278 kts | 251° |
| 2026-05-06 19:41 | 53.69725 | 9.80353 | 6964 ft | 287 kts | 252° |
| 2026-05-06 19:41 | 53.69291 | 9.78249 | 7588 ft | 289 kts | 252° |
| 2026-05-06 19:41 | 53.68650 | 9.75075 | 8546 ft | 289 kts | 252° |
| 2026-05-06 19:41 | 53.67800 | 9.70779 | 9580 ft | 292 kts | 252° |
| 2026-05-06 19:42 | 53.67164 | 9.67553 | 10462 ft | 294 kts | 252° |
| 2026-05-06 19:42 | 53.66727 | 9.65340 | 10871 ft | 303 kts | 252° |
| 2026-05-06 19:42 | 53.65615 | 9.60856 | 11487 ft | 326 kts | 235° |
| 2026-05-06 19:42 | 53.64580 | 9.59021 | 11877 ft | 334 kts | 218° |
| 2026-05-06 19:43 | 53.61702 | 9.57060 | 12846 ft | 342 kts | 188° |
| 2026-05-06 19:43 | 53.60131 | 9.56772 | 13376 ft | 343 kts | 187° |
| 2026-05-06 19:43 | 53.56972 | 9.56213 | 14315 ft | 349 kts | 187° |
| 2026-05-06 19:43 | 53.54544 | 9.55761 | 15025 ft | 352 kts | 188° |
| 2026-05-06 19:44 | 53.52128 | 9.55299 | 15738 ft | 355 kts | 188° |
| 2026-05-06 19:44 | 53.50478 | 9.54980 | 16233 ft | 357 kts | 188° |
| 2026-05-06 19:44 | 53.48021 | 9.54499 | 16942 ft | 359 kts | 188° |
| 2026-05-06 19:44 | 53.45551 | 9.54014 | 17626 ft | 361 kts | 188° |
| 2026-05-06 19:45 | 53.43088 | 9.53529 | 18276 ft | 363 kts | 188° |
| 2026-05-06 19:45 | 53.39712 | 9.52866 | 19151 ft | 366 kts | 188° |
| 2026-05-06 19:45 | 53.37215 | 9.52375 | 19754 ft | 368 kts | 188° |
| 2026-05-06 19:45 | 53.34671 | 9.51876 | 20342 ft | 371 kts | 188° |
| 2026-05-06 19:46 | 53.32091 | 9.51371 | 20977 ft | 372 kts | 188° |
| 2026-05-06 19:46 | 53.30410 | 9.51041 | 21419 ft | 372 kts | 188° |
| 2026-05-06 19:46 | 53.26957 | 9.50364 | 22197 ft | 375 kts | 188° |
| 2026-05-06 19:46 | 53.24381 | 9.49860 | 22725 ft | 379 kts | 188° |
| 2026-05-06 19:47 | 53.21756 | 9.49349 | 23246 ft | 382 kts | 188° |
| 2026-05-06 19:47 | 53.19126 | 9.48838 | 23749 ft | 385 kts | 188° |
| 2026-05-06 19:47 | 53.17335 | 9.48491 | 24091 ft | 387 kts | 188° |
| 2026-05-06 19:47 | 53.13763 | 9.47799 | 24757 ft | 391 kts | 188° |
| 2026-05-06 19:48 | 53.11095 | 9.47282 | 25232 ft | 394 kts | 188° |
| 2026-05-06 19:48 | 53.09257 | 9.46927 | 25552 ft | 396 kts | 188° |
| 2026-05-06 19:48 | 53.05635 | 9.46226 | 26176 ft | 399 kts | 188° |
| 2026-05-06 19:48 | 53.02871 | 9.45693 | 26634 ft | 402 kts | 188° |
| 2026-05-06 19:49 | 53.00082 | 9.45154 | 27081 ft | 404 kts | 188° |
| 2026-05-06 19:49 | 52.97283 | 9.44588 | 27512 ft | 407 kts | 189° |
| 2026-05-06 19:49 | 52.94467 | 9.43983 | 27930 ft | 409 kts | 189° |
| 2026-05-06 19:49 | 52.91626 | 9.43368 | 28359 ft | 411 kts | 189° |
| 2026-05-06 19:50 | 52.88778 | 9.42755 | 28773 ft | 413 kts | 189° |
| 2026-05-06 19:50 | 52.86889 | 9.42349 | 29042 ft | 415 kts | 189° |
| 2026-05-06 19:50 | 52.83082 | 9.41533 | 29537 ft | 418 kts | 189° |
| 2026-05-06 19:50 | 52.81149 | 9.41121 | 29778 ft | 420 kts | 189° |
| 2026-05-06 19:51 | 52.78281 | 9.40512 | 30135 ft | 422 kts | 189° |
| 2026-05-06 19:51 | 52.75353 | 9.39890 | 30499 ft | 424 kts | 189° |
| 2026-05-06 19:51 | 52.72433 | 9.39272 | 30981 ft | 423 kts | 189° |
| 2026-05-06 19:51 | 52.68565 | 9.38583 | 31603 ft | 420 kts | 186° |
| 2026-05-06 19:52 | 52.66649 | 9.38414 | 31898 ft | 419 kts | 184° |
| 2026-05-06 19:52 | 52.63747 | 9.38392 | 32323 ft | 418 kts | 180° |
| 2026-05-06 19:52 | 52.60836 | 9.38654 | 32743 ft | 417 kts | 177° |
| 2026-05-06 19:52 | 52.57006 | 9.39433 | 33212 ft | 416 kts | 173° |
| 2026-05-06 19:53 | 52.55126 | 9.40001 | 33396 ft | 417 kts | 171° |
| 2026-05-06 19:53 | 52.52288 | 9.41050 | 33646 ft | 417 kts | 169° |
| 2026-05-06 19:53 | 52.49464 | 9.42111 | 33868 ft | 418 kts | 170° |
| 2026-05-06 19:53 | 52.46639 | 9.43164 | 34094 ft | 419 kts | 170° |
| 2026-05-06 19:54 | 52.43806 | 9.44218 | 34316 ft | 420 kts | 170° |
| 2026-05-06 19:54 | 52.40948 | 9.45280 | 34521 ft | 420 kts | 170° |
| 2026-05-06 19:54 | 52.38121 | 9.46331 | 34726 ft | 421 kts | 170° |
| 2026-05-06 19:54 | 52.35249 | 9.47396 | 34835 ft | 422 kts | 170° |
| 2026-05-06 19:55 | 52.29554 | 9.49507 | 34842 ft | 422 kts | 170° |
| 2026-05-06 19:55 | 52.22890 | 9.51969 | 34846 ft | 422 kts | 170° |
| 2026-05-06 19:56 | 52.18092 | 9.53739 | 34842 ft | 422 kts | 170° |
| 2026-05-06 19:56 | 52.12388 | 9.55837 | 34844 ft | 422 kts | 170° |
| 2026-05-06 19:57 | 52.06686 | 9.57928 | 34842 ft | 422 kts | 170° |
| 2026-05-06 19:57 | 52.00973 | 9.60020 | 34837 ft | 421 kts | 170° |
| 2026-05-06 19:58 | 51.95261 | 9.62105 | 34835 ft | 421 kts | 170° |
| 2026-05-06 19:58 | 51.89580 | 9.64175 | 34828 ft | 421 kts | 170° |
| 2026-05-06 19:59 | 51.83826 | 9.66263 | 34832 ft | 421 kts | 170° |
| 2026-05-06 19:59 | 51.77206 | 9.68660 | 34828 ft | 419 kts | 170° |
| 2026-05-06 20:00 | 51.72430 | 9.70384 | 34832 ft | 418 kts | 170° |
| 2026-05-06 20:00 | 51.66769 | 9.72425 | 34830 ft | 418 kts | 170° |
| 2026-05-06 20:01 | 51.61123 | 9.74455 | 34833 ft | 417 kts | 170° |
| 2026-05-06 20:01 | 51.55435 | 9.76493 | 34829 ft | 417 kts | 170° |
| 2026-05-06 20:02 | 51.49788 | 9.78512 | 34820 ft | 417 kts | 170° |
| 2026-05-06 20:02 | 51.44164 | 9.80521 | 34818 ft | 416 kts | 170° |
| 2026-05-06 20:03 | 51.38522 | 9.82528 | 34822 ft | 416 kts | 170° |
| 2026-05-06 20:03 | 51.32907 | 9.84521 | 34819 ft | 416 kts | 170° |
| 2026-05-06 20:04 | 51.27227 | 9.86444 | 34807 ft | 414 kts | 173° |
| 2026-05-06 20:04 | 51.21555 | 9.87514 | 34803 ft | 411 kts | 179° |
| 2026-05-06 20:05 | 51.15859 | 9.87582 | 34807 ft | 409 kts | 185° |
| 2026-05-06 20:05 | 51.10160 | 9.87076 | 34809 ft | 408 kts | 185° |
| 2026-05-06 20:06 | 51.04501 | 9.86595 | 34805 ft | 408 kts | 185° |
| 2026-05-06 20:06 | 50.98845 | 9.86111 | 34806 ft | 407 kts | 185° |
| 2026-05-06 20:07 | 50.93220 | 9.85626 | 34799 ft | 406 kts | 185° |
| 2026-05-06 20:07 | 50.87571 | 9.85136 | 34805 ft | 406 kts | 185° |
| 2026-05-06 20:08 | 50.81941 | 9.84648 | 34812 ft | 407 kts | 185° |
| 2026-05-06 20:08 | 50.76283 | 9.84160 | 34813 ft | 407 kts | 185° |
| 2026-05-06 20:09 | 50.70653 | 9.83675 | 34814 ft | 408 kts | 185° |
| 2026-05-06 20:09 | 50.65007 | 9.83191 | 34804 ft | 407 kts | 185° |
| 2026-05-06 20:10 | 50.59338 | 9.82708 | 34808 ft | 406 kts | 185° |
| 2026-05-06 20:10 | 50.53726 | 9.82230 | 34815 ft | 406 kts | 185° |
| 2026-05-06 20:11 | 50.48115 | 9.81752 | 34808 ft | 406 kts | 185° |
| 2026-05-06 20:11 | 50.42477 | 9.81273 | 34810 ft | 406 kts | 185° |
| 2026-05-06 20:12 | 50.36844 | 9.80796 | 34817 ft | 406 kts | 185° |
| 2026-05-06 20:12 | 50.31239 | 9.80322 | 34818 ft | 405 kts | 185° |
| 2026-05-06 20:13 | 50.25601 | 9.79841 | 34820 ft | 406 kts | 185° |
| 2026-05-06 20:13 | 50.19994 | 9.79371 | 34376 ft | 408 kts | 185° |
| 2026-05-06 20:14 | 50.17159 | 9.79132 | 33856 ft | 408 kts | 184° |
| 2026-05-06 20:14 | 50.14331 | 9.78892 | 33274 ft | 408 kts | 184° |
| 2026-05-06 20:14 | 50.11508 | 9.78651 | 32673 ft | 407 kts | 184° |
| 2026-05-06 20:14 | 50.08700 | 9.78425 | 32097 ft | 407 kts | 182° |
| 2026-05-06 20:15 | 50.05864 | 9.78376 | 31439 ft | 407 kts | 179° |
| 2026-05-06 20:15 | 50.03067 | 9.78539 | 30797 ft | 407 kts | 177° |
| 2026-05-06 20:15 | 49.99295 | 9.78782 | 29938 ft | 404 kts | 177° |
| 2026-05-06 20:15 | 49.97451 | 9.78900 | 29596 ft | 400 kts | 177° |
| 2026-05-06 20:16 | 49.94698 | 9.79077 | 29096 ft | 395 kts | 177° |
| 2026-05-06 20:16 | 49.91991 | 9.79251 | 28609 ft | 390 kts | 178° |
| 2026-05-06 20:16 | 49.89284 | 9.79425 | 28092 ft | 386 kts | 178° |
| 2026-05-06 20:16 | 49.86616 | 9.79596 | 27576 ft | 383 kts | 178° |
| 2026-05-06 20:17 | 49.83948 | 9.79768 | 27071 ft | 379 kts | 178° |
| 2026-05-06 20:17 | 49.81317 | 9.79937 | 26576 ft | 376 kts | 178° |
| 2026-05-06 20:17 | 49.78749 | 9.80100 | 26091 ft | 373 kts | 178° |
| 2026-05-06 20:17 | 49.76174 | 9.80264 | 25611 ft | 369 kts | 178° |
| 2026-05-06 20:18 | 49.73616 | 9.80427 | 25134 ft | 367 kts | 178° |
| 2026-05-06 20:18 | 49.71062 | 9.80588 | 24634 ft | 365 kts | 178° |
| 2026-05-06 20:18 | 49.68572 | 9.80714 | 24180 ft | 362 kts | 179° |
| 2026-05-06 20:18 | 49.66069 | 9.80825 | 23722 ft | 360 kts | 179° |
| 2026-05-06 20:19 | 49.63568 | 9.80937 | 23257 ft | 358 kts | 178° |
| 2026-05-06 20:19 | 49.61090 | 9.81188 | 22828 ft | 355 kts | 175° |
| 2026-05-06 20:19 | 49.58675 | 9.81659 | 22413 ft | 352 kts | 172° |
| 2026-05-06 20:19 | 49.56264 | 9.82315 | 21988 ft | 350 kts | 171° |
| 2026-05-06 20:20 | 49.53834 | 9.82696 | 21664 ft | 357 kts | 183° |
| 2026-05-06 20:20 | 49.51376 | 9.82216 | 21276 ft | 359 kts | 189° |
| 2026-05-06 20:20 | 49.48928 | 9.81537 | 20417 ft | 367 kts | 191° |
| 2026-05-06 20:20 | 49.46414 | 9.80843 | 19653 ft | 370 kts | 190° |
| 2026-05-06 20:21 | 49.43903 | 9.80187 | 19181 ft | 363 kts | 190° |
| 2026-05-06 20:21 | 49.41463 | 9.79577 | 18825 ft | 348 kts | 189° |
| 2026-05-06 20:21 | 49.39096 | 9.79002 | 18061 ft | 346 kts | 189° |
| 2026-05-06 20:21 | 49.36718 | 9.78437 | 17163 ft | 347 kts | 189° |
| 2026-05-06 20:22 | 49.34336 | 9.77878 | 16371 ft | 345 kts | 189° |
| 2026-05-06 20:22 | 49.32008 | 9.77337 | 15627 ft | 342 kts | 189° |
| 2026-05-06 20:22 | 49.29661 | 9.76793 | 14865 ft | 340 kts | 189° |
| 2026-05-06 20:22 | 49.27344 | 9.76261 | 14133 ft | 338 kts | 189° |
| 2026-05-06 20:23 | 49.25025 | 9.75730 | 13388 ft | 336 kts | 189° |
| 2026-05-06 20:23 | 49.22734 | 9.75206 | 12672 ft | 332 kts | 190° |
| 2026-05-06 20:23 | 49.20491 | 9.74690 | 12161 ft | 332 kts | 189° |
| 2026-05-06 20:23 | 49.18216 | 9.74168 | 11702 ft | 330 kts | 189° |
| 2026-05-06 20:24 | 49.15933 | 9.73649 | 11222 ft | 329 kts | 189° |
| 2026-05-06 20:24 | 49.13694 | 9.73138 | 10909 ft | 327 kts | 189° |
| 2026-05-06 20:24 | 49.11449 | 9.72627 | 10872 ft | 324 kts | 190° |
| 2026-05-06 20:24 | 49.09275 | 9.72133 | 10868 ft | 307 kts | 190° |
| 2026-05-06 20:25 | 49.07229 | 9.71666 | 10873 ft | 291 kts | 190° |
| 2026-05-06 20:25 | 49.05234 | 9.71212 | 10884 ft | 289 kts | 190° |
| 2026-05-06 20:25 | 49.03269 | 9.70769 | 10696 ft | 281 kts | 189° |
| 2026-05-06 20:25 | 49.01348 | 9.70331 | 10097 ft | 282 kts | 190° |
| 2026-05-06 20:26 | 48.99397 | 9.69889 | 9487 ft | 282 kts | 189° |
| 2026-05-06 20:26 | 48.97477 | 9.69456 | 8946 ft | 280 kts | 190° |
| 2026-05-06 20:26 | 48.95569 | 9.69025 | 8401 ft | 279 kts | 191° |
| 2026-05-06 20:26 | 48.93653 | 9.68594 | 7916 ft | 276 kts | 192° |
| 2026-05-06 20:27 | 48.91759 | 9.68165 | 7512 ft | 277 kts | 192° |
| 2026-05-06 20:27 | 48.89864 | 9.67733 | 7187 ft | 275 kts | 192° |
| 2026-05-06 20:27 | 48.87980 | 9.67311 | 6883 ft | 268 kts | 192° |
| 2026-05-06 20:27 | 48.86181 | 9.66906 | 6548 ft | 260 kts | 192° |
| 2026-05-06 20:28 | 48.84439 | 9.66516 | 6236 ft | 247 kts | 192° |
| 2026-05-06 20:28 | 48.82762 | 9.66144 | 5959 ft | 239 kts | 193° |
| 2026-05-06 20:28 | 48.81131 | 9.65772 | 5710 ft | 237 kts | 193° |
| 2026-05-06 20:28 | 48.79610 | 9.65013 | 5446 ft | 225 kts | 217° |
| 2026-05-06 20:29 | 48.78361 | 9.63630 | 5222 ft | 218 kts | 223° |
| 2026-05-06 20:29 | 48.77302 | 9.62126 | 5035 ft | 205 kts | 234° |
| 2026-05-06 20:29 | 48.76488 | 9.60445 | 4812 ft | 192 kts | 243° |
| 2026-05-06 20:29 | 48.75917 | 9.58699 | 4493 ft | 184 kts | 251° |
| 2026-05-06 20:30 | 48.75531 | 9.56872 | 4109 ft | 180 kts | 257° |
| 2026-05-06 20:30 | 48.74903 | 9.53214 | 4000 ft | 174 kts | 257° |
| 2026-05-06 20:30 | 48.74590 | 9.51472 | 3995 ft | 171 kts | 256° |
| 2026-05-06 20:31 | 48.74266 | 9.49733 | 3982 ft | 171 kts | 255° |
| 2026-05-06 20:31 | 48.73933 | 9.48015 | 4009 ft | 170 kts | 256° |
| 2026-05-06 20:31 | 48.73607 | 9.46307 | 4067 ft | 166 kts | 254° |
| 2026-05-06 20:31 | 48.73297 | 9.44701 | 3922 ft | 152 kts | 256° |
| 2026-05-06 20:32 | 48.72903 | 9.42680 | 3642 ft | 149 kts | 256° |
| 2026-05-06 20:32 | 48.72708 | 9.41685 | 3498 ft | 148 kts | 254° |
| 2026-05-06 20:32 | 48.72421 | 9.40206 | 3304 ft | 148 kts | 255° |
| 2026-05-06 20:32 | 48.72133 | 9.38702 | 3118 ft | 146 kts | 255° |
| 2026-05-06 20:33 | 48.71848 | 9.37215 | 2940 ft | 148 kts | 255° |
| 2026-05-06 20:33 | 48.71563 | 9.35723 | 2728 ft | 149 kts | 255° |
| 2026-05-06 20:33 | 48.71275 | 9.34224 | 2528 ft | 147 kts | 254° |
| 2026-05-06 20:33 | 48.71003 | 9.32805 | 2310 ft | 135 kts | 254° |
| 2026-05-06 20:34 | 48.70748 | 9.31464 | 2128 ft | 131 kts | 255° |
| 2026-05-06 20:34 | 48.70497 | 9.30140 | 1964 ft | 130 kts | 255° |
| 2026-05-06 20:34 | 48.70248 | 9.28834 | 1803 ft | 130 kts | 254° |
| 2026-05-06 20:34 | 48.70002 | 9.27510 | 1623 ft | 130 kts | 254° |
| 2026-05-06 20:35 | 48.69745 | 9.26200 | 1449 ft | 129 kts | 253° |
| 2026-05-06 20:35 | 48.69503 | 9.24913 | 1282 ft | 128 kts | 253° |
| 2026-05-06 20:35 | 48.69262 | 9.23649 | 1195 ft | 112 kts | 254° |
| 2026-05-06 20:35 | 48.69094 | 9.22766 | 1217 ft | 70 kts | 253° |
| 2026-05-06 20:36 | 48.68974 | 9.22130 | 1233 ft | 56 kts | 254° |
| 2026-05-06 20:36 | 48.68876 | 9.21604 | 1244 ft | 48 kts | 253° |
| 2026-05-06 20:36 | 48.68787 | 9.21148 | 1254 ft | 41 kts | 253° |
| 2026-05-06 20:36 | 48.68714 | 9.20757 | 1265 ft | 35 kts | 255° |
| 2026-05-06 20:37 | 48.68681 | 9.20430 | 1275 ft | 28 kts | 270° |
| 2026-05-06 20:37 | 48.68706 | 9.20177 | 1283 ft | 14 kts | 282° |
| 2026-05-06 20:37 | 48.68739 | 9.20046 | 1287 ft | 12 kts | 311° |
| 2026-05-06 20:37 | 48.68796 | 9.19954 | 1290 ft | 12 kts | 315° |
| 2026-05-06 20:38 | 48.68862 | 9.19895 | 1294 ft | 11 kts | 333° |
| 2026-05-06 20:38 | 48.68878 | 9.19779 | 1294 ft | 13 kts | 253° |
| 2026-05-06 20:38 | 48.68850 | 9.19634 | 1294 ft | 14 kts | 253° |
| 2026-05-06 20:38 | 48.68856 | 9.19547 | 1295 ft | 7 kts | 335° |
| 2026-05-06 20:39 | 48.68899 | 9.19531 | 1294 ft | 0 kts | 344° |
| 2026-05-06 20:39 | 48.68906 | 9.19528 | 1294 ft | 1 kts | 343° |
| 2026-05-06 20:39 | 48.68915 | 9.19523 | 1294 ft | 0 kts | 343° |